Terminal Aerodrome Forecast
Issued by NWS

Home | Current Version | Previous Version | Text Only | Print | Product List | Glossary On
Versions: 1 2 3 4 5 6 7 8 9 10 11 12 13 14 15 16 17
687
FTUS43 KILX 111740
TAFCMI
TAF
KCMI 111740Z 1118/1218 36007KT P6SM SCT250
     FM120200 VRB03KT P6SM BKN080
     FM120500 VRB04KT 6SM -SN OVC035
     FM120700 20006KT 4SM -SN BR OVC015
     FM121300 27008KT P6SM OVC020
     FM121600 29013G18KT P6SM BKN025=

USA.gov is the U.S. government's official web portal to all federal, state and local government web resources and services.